sensor_id;sensor_type;location;lat;lon;timestamp;P1;durP1;ratioP1;P2;durP2;ratioP2
36725;SDS011;44936;52.086;5.150;2023-06-19T00:01:46;5.93;;;3.20;;
36725;SDS011;44936;52.086;5.150;2023-06-19T00:04:11;4.68;;;2.95;;
36725;SDS011;44936;52.086;5.150;2023-06-19T00:06:37;5.15;;;2.95;;
36725;SDS011;44936;52.086;5.150;2023-06-19T00:09:03;7.90;;;3.42;;
36725;SDS011;44936;52.086;5.150;2023-06-19T00:11:28;6.45;;;3.47;;
36725;SDS011;44936;52.086;5.150;2023-06-19T00:13:54;6.72;;;3.17;;
36725;SDS011;44936;52.086;5.150;2023-06-19T00:16:19;9.27;;;3.63;;
36725;SDS011;44936;52.086;5.150;2023-06-19T00:18:45;6.85;;;3.65;;
36725;SDS011;44936;52.086;5.150;2023-06-19T00:21:11;6.95;;;3.30;;
36725;SDS011;44936;52.086;5.150;2023-06-19T00:23:36;8.05;;;3.70;;
36725;SDS011;44936;52.086;5.150;2023-06-19T00:26:02;6.82;;;3.42;;
36725;SDS011;44936;52.086;5.150;2023-06-19T00:28:28;6.55;;;3.20;;
36725;SDS011;44936;52.086;5.150;2023-06-19T00:30:56;6.78;;;3.33;;
36725;SDS011;44936;52.086;5.150;2023-06-19T00:33:22;5.72;;;2.90;;
36725;SDS011;44936;52.086;5.150;2023-06-19T00:35:49;6.13;;;3.20;;
36725;SDS011;44936;52.086;5.150;2023-06-19T00:38:15;7.13;;;3.08;;
36725;SDS011;44936;52.086;5.150;2023-06-19T00:40:40;7.65;;;3.25;;
36725;SDS011;44936;52.086;5.150;2023-06-19T00:43:06;4.95;;;2.65;;
36725;SDS011;44936;52.086;5.150;2023-06-19T00:45:31;5.25;;;2.90;;
36725;SDS011;44936;52.086;5.150;2023-06-19T00:47:57;6.85;;;3.03;;
36725;SDS011;44936;52.086;5.150;2023-06-19T00:50:24;4.35;;;2.50;;
36725;SDS011;44936;52.086;5.150;2023-06-19T00:52:49;5.18;;;2.60;;
36725;SDS011;44936;52.086;5.150;2023-06-19T00:55:15;4.28;;;2.38;;
36725;SDS011;44936;52.086;5.150;2023-06-19T00:57:41;3.97;;;1.90;;
36725;SDS011;44936;52.086;5.150;2023-06-19T01:00:07;3.42;;;1.50;;
36725;SDS011;44936;52.086;5.150;2023-06-19T01:02:34;2.28;;;1.33;;
36725;SDS011;44936;52.086;5.150;2023-06-19T01:05:00;2.13;;;1.30;;
36725;SDS011;44936;52.086;5.150;2023-06-19T01:07:28;2.42;;;1.55;;
36725;SDS011;44936;52.086;5.150;2023-06-19T01:10:05;3.15;;;1.50;;
36725;SDS011;44936;52.086;5.150;2023-06-19T01:12:36;2.92;;;1.25;;
36725;SDS011;44936;52.086;5.150;2023-06-19T01:15:08;2.47;;;1.50;;
36725;SDS011;44936;52.086;5.150;2023-06-19T01:17:35;3.78;;;1.60;;
36725;SDS011;44936;52.086;5.150;2023-06-19T01:20:01;2.60;;;1.00;;
36725;SDS011;44936;52.086;5.150;2023-06-19T01:22:31;1.13;;;0.93;;
36725;SDS011;44936;52.086;5.150;2023-06-19T01:24:57;1.73;;;1.20;;
36725;SDS011;44936;52.086;5.150;2023-06-19T01:27:24;1.20;;;0.90;;
36725;SDS011;44936;52.086;5.150;2023-06-19T01:29:51;1.58;;;0.93;;
36725;SDS011;44936;52.086;5.150;2023-06-19T01:32:20;2.58;;;1.00;;
36725;SDS011;44936;52.086;5.150;2023-06-19T01:34:53;2.08;;;1.10;;
36725;SDS011;44936;52.086;5.150;2023-06-19T01:37:22;3.92;;;1.27;;
36725;SDS011;44936;52.086;5.150;2023-06-19T01:39:52;1.20;;;0.70;;
36725;SDS011;44936;52.086;5.150;2023-06-19T01:42:21;2.15;;;0.88;;
36725;SDS011;44936;52.086;5.150;2023-06-19T01:44:46;2.25;;;1.10;;
36725;SDS011;44936;52.086;5.150;2023-06-19T01:47:12;2.20;;;1.08;;
36725;SDS011;44936;52.086;5.150;2023-06-19T01:49:40;2.25;;;1.20;;
36725;SDS011;44936;52.086;5.150;2023-06-19T01:52:05;2.15;;;1.00;;
36725;SDS011;44936;52.086;5.150;2023-06-19T01:54:31;1.20;;;0.95;;
36725;SDS011;44936;52.086;5.150;2023-06-19T01:56:57;1.48;;;1.15;;
36725;SDS011;44936;52.086;5.150;2023-06-19T01:59:22;2.25;;;1.10;;
36725;SDS011;44936;52.086;5.150;2023-06-19T02:01:47;2.78;;;1.00;;
36725;SDS011;44936;52.086;5.150;2023-06-19T02:04:13;2.00;;;1.30;;
36725;SDS011;44936;52.086;5.150;2023-06-19T02:06:38;3.95;;;1.40;;
36725;SDS011;44936;52.086;5.150;2023-06-19T02:09:04;1.60;;;0.88;;
36725;SDS011;44936;52.086;5.150;2023-06-19T02:11:29;1.52;;;1.10;;
36725;SDS011;44936;52.086;5.150;2023-06-19T02:13:54;1.65;;;1.00;;
36725;SDS011;44936;52.086;5.150;2023-06-19T02:16:20;2.67;;;1.05;;
36725;SDS011;44936;52.086;5.150;2023-06-19T02:18:45;2.55;;;1.25;;
36725;SDS011;44936;52.086;5.150;2023-06-19T02:21:10;3.10;;;1.30;;
36725;SDS011;44936;52.086;5.150;2023-06-19T02:23:36;1.55;;;1.02;;
36725;SDS011;44936;52.086;5.150;2023-06-19T02:26:01;4.10;;;1.60;;
36725;SDS011;44936;52.086;5.150;2023-06-19T02:28:26;2.20;;;1.08;;
36725;SDS011;44936;52.086;5.150;2023-06-19T02:30:53;2.08;;;1.50;;
36725;SDS011;44936;52.086;5.150;2023-06-19T02:33:21;2.38;;;1.10;;
36725;SDS011;44936;52.086;5.150;2023-06-19T02:35:47;1.77;;;1.08;;
36725;SDS011;44936;52.086;5.150;2023-06-19T02:38:12;3.00;;;1.45;;
36725;SDS011;44936;52.086;5.150;2023-06-19T02:40:38;2.63;;;1.42;;
36725;SDS011;44936;52.086;5.150;2023-06-19T02:43:04;2.50;;;1.30;;
36725;SDS011;44936;52.086;5.150;2023-06-19T02:45:29;2.83;;;1.70;;
36725;SDS011;44936;52.086;5.150;2023-06-19T02:47:55;3.70;;;1.50;;
36725;SDS011;44936;52.086;5.150;2023-06-19T02:50:20;2.03;;;1.48;;
36725;SDS011;44936;52.086;5.150;2023-06-19T02:52:45;2.92;;;1.52;;
36725;SDS011;44936;52.086;5.150;2023-06-19T02:55:11;2.70;;;1.60;;
36725;SDS011;44936;52.086;5.150;2023-06-19T02:57:36;3.45;;;1.80;;
36725;SDS011;44936;52.086;5.150;2023-06-19T03:00:01;2.53;;;1.50;;
36725;SDS011;44936;52.086;5.150;2023-06-19T03:02:28;2.28;;;1.45;;
36725;SDS011;44936;52.086;5.150;2023-06-19T03:04:53;2.37;;;1.20;;
36725;SDS011;44936;52.086;5.150;2023-06-19T03:07:21;2.95;;;1.13;;
36725;SDS011;44936;52.086;5.150;2023-06-19T03:09:47;4.22;;;1.35;;
36725;SDS011;44936;52.086;5.150;2023-06-19T03:12:12;3.75;;;1.70;;
36725;SDS011;44936;52.086;5.150;2023-06-19T03:14:38;4.10;;;1.90;;
36725;SDS011;44936;52.086;5.150;2023-06-19T03:17:05;5.20;;;1.70;;
36725;SDS011;44936;52.086;5.150;2023-06-19T03:19:30;4.03;;;1.60;;
36725;SDS011;44936;52.086;5.150;2023-06-19T03:21:56;2.97;;;1.85;;
36725;SDS011;44936;52.086;5.150;2023-06-19T03:24:21;2.85;;;1.75;;
36725;SDS011;44936;52.086;5.150;2023-06-19T03:26:46;2.50;;;1.67;;
36725;SDS011;44936;52.086;5.150;2023-06-19T03:29:12;3.35;;;1.92;;
36725;SDS011;44936;52.086;5.150;2023-06-19T03:31:37;3.72;;;2.25;;
36725;SDS011;44936;52.086;5.150;2023-06-19T03:34:04;4.20;;;2.13;;
36725;SDS011;44936;52.086;5.150;2023-06-19T03:36:30;3.10;;;2.25;;
36725;SDS011;44936;52.086;5.150;2023-06-19T03:38:55;5.25;;;2.60;;
36725;SDS011;44936;52.086;5.150;2023-06-19T03:41:21;6.82;;;2.80;;
36725;SDS011;44936;52.086;5.150;2023-06-19T03:43:46;5.03;;;2.67;;
36725;SDS011;44936;52.086;5.150;2023-06-19T03:46:11;6.05;;;2.75;;
36725;SDS011;44936;52.086;5.150;2023-06-19T03:48:37;5.80;;;2.85;;
36725;SDS011;44936;52.086;5.150;2023-06-19T03:51:02;7.78;;;3.15;;
36725;SDS011;44936;52.086;5.150;2023-06-19T03:53:28;5.85;;;2.78;;
36725;SDS011;44936;52.086;5.150;2023-06-19T03:55:54;8.07;;;3.47;;
36725;SDS011;44936;52.086;5.150;2023-06-19T03:58:19;8.18;;;3.28;;
36725;SDS011;44936;52.086;5.150;2023-06-19T04:00:44;8.30;;;3.63;;
36725;SDS011;44936;52.086;5.150;2023-06-19T04:03:10;7.00;;;3.38;;
36725;SDS011;44936;52.086;5.150;2023-06-19T04:05:35;8.00;;;3.28;;
36725;SDS011;44936;52.086;5.150;2023-06-19T04:08:00;8.77;;;3.72;;
36725;SDS011;44936;52.086;5.150;2023-06-19T04:10:26;6.95;;;2.85;;
36725;SDS011;44936;52.086;5.150;2023-06-19T04:12:51;7.35;;;3.22;;
36725;SDS011;44936;52.086;5.150;2023-06-19T04:15:16;6.22;;;3.10;;
36725;SDS011;44936;52.086;5.150;2023-06-19T04:17:42;6.35;;;2.70;;
36725;SDS011;44936;52.086;5.150;2023-06-19T04:20:07;9.32;;;3.50;;
36725;SDS011;44936;52.086;5.150;2023-06-19T04:22:42;8.73;;;3.25;;
36725;SDS011;44936;52.086;5.150;2023-06-19T04:25:08;8.50;;;3.67;;
36725;SDS011;44936;52.086;5.150;2023-06-19T04:27:35;7.60;;;3.17;;
36725;SDS011;44936;52.086;5.150;2023-06-19T04:30:01;10.55;;;3.85;;
36725;SDS011;44936;52.086;5.150;2023-06-19T04:32:29;7.32;;;3.35;;
36725;SDS011;44936;52.086;5.150;2023-06-19T04:34:54;6.60;;;2.63;;
36725;SDS011;44936;52.086;5.150;2023-06-19T04:37:20;7.13;;;2.83;;
36725;SDS011;44936;52.086;5.150;2023-06-19T04:39:45;5.57;;;2.20;;
36725;SDS011;44936;52.086;5.150;2023-06-19T04:42:13;4.00;;;1.95;;
36725;SDS011;44936;52.086;5.150;2023-06-19T04:44:44;2.83;;;1.45;;
36725;SDS011;44936;52.086;5.150;2023-06-19T04:47:13;2.72;;;1.30;;
36725;SDS011;44936;52.086;5.150;2023-06-19T04:49:39;1.52;;;1.10;;
36725;SDS011;44936;52.086;5.150;2023-06-19T04:52:05;2.75;;;1.08;;
36725;SDS011;44936;52.086;5.150;2023-06-19T04:54:30;2.58;;;1.42;;
36725;SDS011;44936;52.086;5.150;2023-06-19T04:56:58;2.38;;;1.02;;
36725;SDS011;44936;52.086;5.150;2023-06-19T04:59:23;1.92;;;1.30;;
36725;SDS011;44936;52.086;5.150;2023-06-19T05:01:49;2.28;;;1.20;;
36725;SDS011;44936;52.086;5.150;2023-06-19T05:04:14;1.67;;;1.08;;
36725;SDS011;44936;52.086;5.150;2023-06-19T05:06:39;1.30;;;1.05;;
36725;SDS011;44936;52.086;5.150;2023-06-19T05:09:05;1.15;;;1.02;;
36725;SDS011;44936;52.086;5.150;2023-06-19T05:11:30;1.52;;;1.20;;
36725;SDS011;44936;52.086;5.150;2023-06-19T05:13:56;1.20;;;0.90;;
36725;SDS011;44936;52.086;5.150;2023-06-19T05:16:21;1.02;;;0.90;;
36725;SDS011;44936;52.086;5.150;2023-06-19T05:18:48;1.55;;;1.00;;
36725;SDS011;44936;52.086;5.150;2023-06-19T05:21:15;1.30;;;1.00;;
36725;SDS011;44936;52.086;5.150;2023-06-19T05:23:40;2.17;;;1.25;;
36725;SDS011;44936;52.086;5.150;2023-06-19T05:26:05;1.30;;;1.17;;
36725;SDS011;44936;52.086;5.150;2023-06-19T05:28:31;1.75;;;1.20;;
36725;SDS011;44936;52.086;5.150;2023-06-19T05:30:56;2.85;;;1.38;;
36725;SDS011;44936;52.086;5.150;2023-06-19T05:33:22;2.40;;;1.52;;
36725;SDS011;44936;52.086;5.150;2023-06-19T05:35:48;2.30;;;1.52;;
36725;SDS011;44936;52.086;5.150;2023-06-19T05:38:17;2.70;;;1.95;;
36725;SDS011;44936;52.086;5.150;2023-06-19T05:40:43;2.67;;;1.58;;
36725;SDS011;44936;52.086;5.150;2023-06-19T05:43:09;4.47;;;2.03;;
36725;SDS011;44936;52.086;5.150;2023-06-19T05:45:34;4.35;;;2.03;;
36725;SDS011;44936;52.086;5.150;2023-06-19T05:47:59;2.97;;;1.73;;
36725;SDS011;44936;52.086;5.150;2023-06-19T05:50:25;3.55;;;2.17;;
36725;SDS011;44936;52.086;5.150;2023-06-19T05:52:50;5.85;;;1.90;;
36725;SDS011;44936;52.086;5.150;2023-06-19T05:55:16;3.78;;;2.00;;
36725;SDS011;44936;52.086;5.150;2023-06-19T05:57:42;2.03;;;1.50;;
36725;SDS011;44936;52.086;5.150;2023-06-19T06:00:07;2.85;;;1.63;;
36725;SDS011;44936;52.086;5.150;2023-06-19T06:02:38;3.60;;;1.75;;
36725;SDS011;44936;52.086;5.150;2023-06-19T06:05:04;4.65;;;1.73;;
36725;SDS011;44936;52.086;5.150;2023-06-19T06:07:30;3.83;;;1.90;;
36725;SDS011;44936;52.086;5.150;2023-06-19T06:09:55;2.28;;;1.55;;
36725;SDS011;44936;52.086;5.150;2023-06-19T06:12:21;4.47;;;1.85;;
36725;SDS011;44936;52.086;5.150;2023-06-19T06:14:46;3.88;;;1.98;;
36725;SDS011;44936;52.086;5.150;2023-06-19T06:17:11;2.65;;;1.67;;
36725;SDS011;44936;52.086;5.150;2023-06-19T06:19:36;4.18;;;2.00;;
36725;SDS011;44936;52.086;5.150;2023-06-19T06:22:03;5.43;;;2.20;;
36725;SDS011;44936;52.086;5.150;2023-06-19T06:24:29;3.70;;;1.90;;
36725;SDS011;44936;52.086;5.150;2023-06-19T06:26:55;3.40;;;2.15;;
36725;SDS011;44936;52.086;5.150;2023-06-19T06:29:20;3.53;;;1.88;;
36725;SDS011;44936;52.086;5.150;2023-06-19T06:31:46;3.05;;;1.95;;
36725;SDS011;44936;52.086;5.150;2023-06-19T06:34:12;5.40;;;2.55;;
36725;SDS011;44936;52.086;5.150;2023-06-19T06:36:38;5.75;;;2.80;;
36725;SDS011;44936;52.086;5.150;2023-06-19T06:39:03;3.67;;;2.17;;
36725;SDS011;44936;52.086;5.150;2023-06-19T06:41:29;7.15;;;3.17;;
36725;SDS011;44936;52.086;5.150;2023-06-19T06:43:54;5.55;;;3.10;;
36725;SDS011;44936;52.086;5.150;2023-06-19T06:46:20;5.53;;;2.72;;
36725;SDS011;44936;52.086;5.150;2023-06-19T06:48:46;6.40;;;3.13;;
36725;SDS011;44936;52.086;5.150;2023-06-19T06:51:11;7.43;;;3.35;;
36725;SDS011;44936;52.086;5.150;2023-06-19T06:53:36;9.73;;;3.67;;
36725;SDS011;44936;52.086;5.150;2023-06-19T06:56:02;7.53;;;3.17;;
36725;SDS011;44936;52.086;5.150;2023-06-19T06:58:28;8.10;;;3.10;;
36725;SDS011;44936;52.086;5.150;2023-06-19T07:00:53;5.07;;;2.70;;
36725;SDS011;44936;52.086;5.150;2023-06-19T07:03:19;7.95;;;3.72;;
36725;SDS011;44936;52.086;5.150;2023-06-19T07:05:44;7.35;;;3.15;;
36725;SDS011;44936;52.086;5.150;2023-06-19T07:08:10;7.65;;;3.35;;
36725;SDS011;44936;52.086;5.150;2023-06-19T07:10:35;10.07;;;4.18;;
36725;SDS011;44936;52.086;5.150;2023-06-19T07:13:01;7.70;;;3.40;;
36725;SDS011;44936;52.086;5.150;2023-06-19T07:15:26;7.38;;;3.67;;
36725;SDS011;44936;52.086;5.150;2023-06-19T07:17:51;5.83;;;3.40;;
36725;SDS011;44936;52.086;5.150;2023-06-19T07:20:17;6.75;;;3.47;;
36725;SDS011;44936;52.086;5.150;2023-06-19T07:22:43;9.63;;;3.58;;
36725;SDS011;44936;52.086;5.150;2023-06-19T07:25:09;7.07;;;3.03;;
36725;SDS011;44936;52.086;5.150;2023-06-19T07:27:36;6.03;;;3.05;;
36725;SDS011;44936;52.086;5.150;2023-06-19T07:30:02;5.80;;;2.78;;
36725;SDS011;44936;52.086;5.150;2023-06-19T07:32:28;7.75;;;3.20;;
36725;SDS011;44936;52.086;5.150;2023-06-19T07:34:53;7.18;;;3.00;;
36725;SDS011;44936;52.086;5.150;2023-06-19T07:37:19;7.32;;;3.33;;
36725;SDS011;44936;52.086;5.150;2023-06-19T07:39:45;6.20;;;3.55;;
36725;SDS011;44936;52.086;5.150;2023-06-19T07:42:12;8.43;;;4.10;;
36725;SDS011;44936;52.086;5.150;2023-06-19T07:44:39;8.70;;;4.28;;
36725;SDS011;44936;52.086;5.150;2023-06-19T07:47:04;11.93;;;4.90;;
36725;SDS011;44936;52.086;5.150;2023-06-19T07:49:30;7.93;;;4.05;;
36725;SDS011;44936;52.086;5.150;2023-06-19T07:51:55;9.80;;;4.17;;
36725;SDS011;44936;52.086;5.150;2023-06-19T07:54:20;10.15;;;4.25;;
36725;SDS011;44936;52.086;5.150;2023-06-19T07:56:46;9.23;;;4.30;;
36725;SDS011;44936;52.086;5.150;2023-06-19T07:59:11;12.00;;;4.43;;
36725;SDS011;44936;52.086;5.150;2023-06-19T08:01:36;10.13;;;4.22;;
36725;SDS011;44936;52.086;5.150;2023-06-19T08:04:02;8.95;;;4.47;;
36725;SDS011;44936;52.086;5.150;2023-06-19T08:06:27;10.18;;;4.18;;
36725;SDS011;44936;52.086;5.150;2023-06-19T08:08:52;11.50;;;5.00;;
36725;SDS011;44936;52.086;5.150;2023-06-19T08:11:18;8.45;;;3.90;;
36725;SDS011;44936;52.086;5.150;2023-06-19T08:13:43;11.95;;;5.10;;
36725;SDS011;44936;52.086;5.150;2023-06-19T08:16:08;9.45;;;4.28;;
36725;SDS011;44936;52.086;5.150;2023-06-19T08:18:35;11.38;;;4.88;;
36725;SDS011;44936;52.086;5.150;2023-06-19T08:21:01;9.13;;;4.13;;
36725;SDS011;44936;52.086;5.150;2023-06-19T08:23:26;9.57;;;4.57;;
36725;SDS011;44936;52.086;5.150;2023-06-19T08:25:51;12.80;;;5.30;;
36725;SDS011;44936;52.086;5.150;2023-06-19T08:28:17;12.73;;;4.35;;
36725;SDS011;44936;52.086;5.150;2023-06-19T08:30:44;10.40;;;5.22;;
36725;SDS011;44936;52.086;5.150;2023-06-19T08:33:09;9.88;;;4.90;;
36725;SDS011;44936;52.086;5.150;2023-06-19T08:35:35;7.95;;;4.00;;
36725;SDS011;44936;52.086;5.150;2023-06-19T08:38:00;12.75;;;5.13;;
36725;SDS011;44936;52.086;5.150;2023-06-19T08:40:25;9.52;;;5.13;;
36725;SDS011;44936;52.086;5.150;2023-06-19T08:42:51;13.07;;;5.75;;
36725;SDS011;44936;52.086;5.150;2023-06-19T08:45:17;11.32;;;5.63;;
36725;SDS011;44936;52.086;5.150;2023-06-19T08:47:46;12.00;;;5.45;;
36725;SDS011;44936;52.086;5.150;2023-06-19T08:50:12;10.40;;;5.22;;
36725;SDS011;44936;52.086;5.150;2023-06-19T08:52:38;12.70;;;5.43;;
36725;SDS011;44936;52.086;5.150;2023-06-19T08:55:03;10.90;;;4.43;;
36725;SDS011;44936;52.086;5.150;2023-06-19T08:57:34;13.80;;;5.88;;
36725;SDS011;44936;52.086;5.150;2023-06-19T09:00:02;10.90;;;5.10;;
36725;SDS011;44936;52.086;5.150;2023-06-19T09:02:41;14.13;;;5.63;;
36725;SDS011;44936;52.086;5.150;2023-06-19T09:05:14;13.10;;;5.68;;
36725;SDS011;44936;52.086;5.150;2023-06-19T09:07:42;9.90;;;5.00;;
36725;SDS011;44936;52.086;5.150;2023-06-19T09:10:18;13.05;;;4.53;;
36725;SDS011;44936;52.086;5.150;2023-06-19T09:12:44;12.27;;;6.07;;
36725;SDS011;44936;52.086;5.150;2023-06-19T09:15:21;11.13;;;5.15;;
36725;SDS011;44936;52.086;5.150;2023-06-19T09:17:48;12.82;;;4.85;;
36725;SDS011;44936;52.086;5.150;2023-06-19T09:20:28;12.05;;;5.20;;
36725;SDS011;44936;52.086;5.150;2023-06-19T09:22:57;14.27;;;5.30;;
36725;SDS011;44936;52.086;5.150;2023-06-19T09:25:23;11.65;;;5.13;;
36725;SDS011;44936;52.086;5.150;2023-06-19T09:27:50;12.40;;;4.95;;
36725;SDS011;44936;52.086;5.150;2023-06-19T09:30:15;11.68;;;5.03;;
36725;SDS011;44936;52.086;5.150;2023-06-19T09:32:41;13.35;;;5.35;;
36725;SDS011;44936;52.086;5.150;2023-06-19T09:35:06;13.43;;;5.65;;
36725;SDS011;44936;52.086;5.150;2023-06-19T09:37:32;11.85;;;5.47;;
36725;SDS011;44936;52.086;5.150;2023-06-19T09:39:59;12.30;;;5.57;;
36725;SDS011;44936;52.086;5.150;2023-06-19T09:42:27;14.30;;;5.60;;
36725;SDS011;44936;52.086;5.150;2023-06-19T09:44:55;11.20;;;4.65;;
36725;SDS011;44936;52.086;5.150;2023-06-19T09:47:27;9.52;;;4.75;;
36725;SDS011;44936;52.086;5.150;2023-06-19T09:50:00;10.52;;;4.75;;
36725;SDS011;44936;52.086;5.150;2023-06-19T09:52:27;9.85;;;4.60;;
36725;SDS011;44936;52.086;5.150;2023-06-19T09:54:53;12.10;;;5.07;;
36725;SDS011;44936;52.086;5.150;2023-06-19T09:57:20;10.23;;;4.97;;
36725;SDS011;44936;52.086;5.150;2023-06-19T09:59:47;10.15;;;4.72;;
36725;SDS011;44936;52.086;5.150;2023-06-19T10:02:15;12.40;;;4.68;;
36725;SDS011;44936;52.086;5.150;2023-06-19T10:04:43;12.00;;;5.07;;
36725;SDS011;44936;52.086;5.150;2023-06-19T10:07:31;10.90;;;4.53;;
36725;SDS011;44936;52.086;5.150;2023-06-19T10:09:59;10.50;;;4.95;;
36725;SDS011;44936;52.086;5.150;2023-06-19T10:12:34;11.38;;;5.38;;
36725;SDS011;44936;52.086;5.150;2023-06-19T10:15:09;13.45;;;5.95;;
36725;SDS011;44936;52.086;5.150;2023-06-19T10:17:35;14.93;;;6.10;;
36725;SDS011;44936;52.086;5.150;2023-06-19T10:20:02;10.40;;;5.07;;
36725;SDS011;44936;52.086;5.150;2023-06-19T10:22:31;11.88;;;5.05;;
36725;SDS011;44936;52.086;5.150;2023-06-19T10:24:56;11.60;;;5.38;;
36725;SDS011;44936;52.086;5.150;2023-06-19T10:27:22;9.43;;;4.55;;
36725;SDS011;44936;52.086;5.150;2023-06-19T10:29:54;14.20;;;6.28;;
36725;SDS011;44936;52.086;5.150;2023-06-19T10:32:22;13.20;;;5.90;;
36725;SDS011;44936;52.086;5.150;2023-06-19T10:34:48;14.45;;;5.35;;
36725;SDS011;44936;52.086;5.150;2023-06-19T10:37:16;10.88;;;5.32;;
36725;SDS011;44936;52.086;5.150;2023-06-19T10:39:42;13.48;;;5.13;;
36725;SDS011;44936;52.086;5.150;2023-06-19T10:42:08;11.45;;;4.80;;
36725;SDS011;44936;52.086;5.150;2023-06-19T10:44:34;11.38;;;5.20;;
36725;SDS011;44936;52.086;5.150;2023-06-19T10:47:01;12.60;;;5.53;;
36725;SDS011;44936;52.086;5.150;2023-06-19T10:49:27;12.23;;;5.53;;
36725;SDS011;44936;52.086;5.150;2023-06-19T10:51:53;12.18;;;5.40;;
36725;SDS011;44936;52.086;5.150;2023-06-19T10:54:24;9.43;;;5.00;;
36725;SDS011;44936;52.086;5.150;2023-06-19T10:56:58;11.07;;;5.05;;
36725;SDS011;44936;52.086;5.150;2023-06-19T10:59:28;10.02;;;4.90;;
36725;SDS011;44936;52.086;5.150;2023-06-19T11:01:53;13.10;;;5.20;;
36725;SDS011;44936;52.086;5.150;2023-06-19T11:04:18;9.13;;;4.80;;
36725;SDS011;44936;52.086;5.150;2023-06-19T11:06:44;9.15;;;4.60;;
36725;SDS011;44936;52.086;5.150;2023-06-19T11:09:12;9.43;;;4.93;;
36725;SDS011;44936;52.086;5.150;2023-06-19T11:11:44;9.30;;;4.50;;
36725;SDS011;44936;52.086;5.150;2023-06-19T11:14:12;7.90;;;4.15;;
36725;SDS011;44936;52.086;5.150;2023-06-19T11:16:39;10.73;;;4.90;;
36725;SDS011;44936;52.086;5.150;2023-06-19T11:19:08;8.50;;;4.82;;
36725;SDS011;44936;52.086;5.150;2023-06-19T11:21:35;10.60;;;5.25;;
36725;SDS011;44936;52.086;5.150;2023-06-19T11:24:05;9.68;;;4.63;;
36725;SDS011;44936;52.086;5.150;2023-06-19T11:26:37;9.85;;;4.80;;
36725;SDS011;44936;52.086;5.150;2023-06-19T11:29:23;9.05;;;4.80;;
36725;SDS011;44936;52.086;5.150;2023-06-19T11:31:50;11.10;;;4.93;;
36725;SDS011;44936;52.086;5.150;2023-06-19T11:34:18;12.25;;;5.03;;
36725;SDS011;44936;52.086;5.150;2023-06-19T11:36:44;9.48;;;4.65;;
36725;SDS011;44936;52.086;5.150;2023-06-19T11:39:11;8.63;;;3.88;;
36725;SDS011;44936;52.086;5.150;2023-06-19T11:41:40;9.00;;;4.45;;
36725;SDS011;44936;52.086;5.150;2023-06-19T11:44:08;8.10;;;3.88;;
36725;SDS011;44936;52.086;5.150;2023-06-19T11:46:36;11.93;;;4.53;;
36725;SDS011;44936;52.086;5.150;2023-06-19T11:49:09;10.05;;;4.57;;
36725;SDS011;44936;52.086;5.150;2023-06-19T11:51:38;6.82;;;3.50;;
36725;SDS011;44936;52.086;5.150;2023-06-19T11:54:05;8.25;;;4.38;;
36725;SDS011;44936;52.086;5.150;2023-06-19T11:56:33;12.20;;;4.35;;
36725;SDS011;44936;52.086;5.150;2023-06-19T11:58:59;7.95;;;4.22;;
36725;SDS011;44936;52.086;5.150;2023-06-19T12:01:24;9.80;;;4.95;;
36725;SDS011;44936;52.086;5.150;2023-06-19T12:03:51;8.98;;;4.20;;
36725;SDS011;44936;52.086;5.150;2023-06-19T12:06:16;8.25;;;4.85;;
36725;SDS011;44936;52.086;5.150;2023-06-19T12:08:45;9.85;;;4.13;;
36725;SDS011;44936;52.086;5.150;2023-06-19T12:11:10;8.68;;;4.32;;
36725;SDS011;44936;52.086;5.150;2023-06-19T12:13:38;8.77;;;4.40;;
36725;SDS011;44936;52.086;5.150;2023-06-19T12:16:03;9.73;;;5.00;;
36725;SDS011;44936;52.086;5.150;2023-06-19T12:18:29;8.98;;;4.68;;
36725;SDS011;44936;52.086;5.150;2023-06-19T12:20:54;10.95;;;4.43;;
36725;SDS011;44936;52.086;5.150;2023-06-19T12:23:20;8.07;;;3.97;;
36725;SDS011;44936;52.086;5.150;2023-06-19T12:25:45;7.80;;;4.38;;
36725;SDS011;44936;52.086;5.150;2023-06-19T12:28:11;7.38;;;4.13;;
36725;SDS011;44936;52.086;5.150;2023-06-19T12:30:36;7.57;;;3.85;;
36725;SDS011;44936;52.086;5.150;2023-06-19T12:33:02;7.90;;;4.32;;
36725;SDS011;44936;52.086;5.150;2023-06-19T12:35:29;6.10;;;3.60;;
36725;SDS011;44936;52.086;5.150;2023-06-19T12:37:55;8.20;;;4.10;;
36725;SDS011;44936;52.086;5.150;2023-06-19T12:40:20;7.05;;;4.20;;
36725;SDS011;44936;52.086;5.150;2023-06-19T12:42:46;8.05;;;3.63;;
36725;SDS011;44936;52.086;5.150;2023-06-19T12:45:11;6.07;;;3.75;;
36725;SDS011;44936;52.086;5.150;2023-06-19T12:47:37;8.65;;;3.60;;
36725;SDS011;44936;52.086;5.150;2023-06-19T12:50:03;7.95;;;3.88;;
36725;SDS011;44936;52.086;5.150;2023-06-19T12:52:29;6.72;;;3.80;;
36725;SDS011;44936;52.086;5.150;2023-06-19T12:54:56;6.38;;;3.50;;
36725;SDS011;44936;52.086;5.150;2023-06-19T12:57:21;6.20;;;3.28;;
36725;SDS011;44936;52.086;5.150;2023-06-19T12:59:46;8.40;;;3.63;;
36725;SDS011;44936;52.086;5.150;2023-06-19T13:02:12;5.90;;;3.47;;
36725;SDS011;44936;52.086;5.150;2023-06-19T13:04:37;7.15;;;3.53;;
36725;SDS011;44936;52.086;5.150;2023-06-19T13:07:03;4.72;;;3.28;;
36725;SDS011;44936;52.086;5.150;2023-06-19T13:09:28;6.63;;;3.58;;
36725;SDS011;44936;52.086;5.150;2023-06-19T13:11:54;6.95;;;3.30;;
36725;SDS011;44936;52.086;5.150;2023-06-19T13:14:20;7.90;;;3.42;;
36725;SDS011;44936;52.086;5.150;2023-06-19T13:16:45;8.45;;;3.40;;
36725;SDS011;44936;52.086;5.150;2023-06-19T13:19:11;6.97;;;3.10;;
36725;SDS011;44936;52.086;5.150;2023-06-19T13:21:36;7.15;;;3.35;;
36725;SDS011;44936;52.086;5.150;2023-06-19T13:24:01;6.80;;;3.00;;
36725;SDS011;44936;52.086;5.150;2023-06-19T13:26:27;7.00;;;3.40;;
36725;SDS011;44936;52.086;5.150;2023-06-19T13:28:52;5.93;;;3.00;;
36725;SDS011;44936;52.086;5.150;2023-06-19T13:31:18;5.78;;;3.15;;
36725;SDS011;44936;52.086;5.150;2023-06-19T13:33:43;6.10;;;2.63;;
36725;SDS011;44936;52.086;5.150;2023-06-19T13:36:08;4.15;;;2.53;;
36725;SDS011;44936;52.086;5.150;2023-06-19T13:38:33;4.75;;;2.60;;
36725;SDS011;44936;52.086;5.150;2023-06-19T13:40:59;6.75;;;3.00;;
36725;SDS011;44936;52.086;5.150;2023-06-19T13:43:24;3.88;;;2.53;;
36725;SDS011;44936;52.086;5.150;2023-06-19T13:45:50;5.07;;;2.88;;
36725;SDS011;44936;52.086;5.150;2023-06-19T13:48:15;8.57;;;3.42;;
36725;SDS011;44936;52.086;5.150;2023-06-19T13:50:40;6.13;;;2.83;;
36725;SDS011;44936;52.086;5.150;2023-06-19T13:53:06;4.57;;;2.50;;
36725;SDS011;44936;52.086;5.150;2023-06-19T13:55:31;4.95;;;2.60;;
36725;SDS011;44936;52.086;5.150;2023-06-19T13:57:56;5.37;;;2.67;;
36725;SDS011;44936;52.086;5.150;2023-06-19T14:00:22;5.97;;;3.00;;
36725;SDS011;44936;52.086;5.150;2023-06-19T14:02:47;5.15;;;2.97;;
36725;SDS011;44936;52.086;5.150;2023-06-19T14:05:12;3.83;;;2.35;;
36725;SDS011;44936;52.086;5.150;2023-06-19T14:07:41;5.30;;;2.58;;
36725;SDS011;44936;52.086;5.150;2023-06-19T14:10:08;3.80;;;2.30;;
36725;SDS011;44936;52.086;5.150;2023-06-19T14:12:33;4.43;;;2.17;;
36725;SDS011;44936;52.086;5.150;2023-06-19T14:14:59;5.33;;;2.43;;
36725;SDS011;44936;52.086;5.150;2023-06-19T14:17:24;4.80;;;2.50;;
36725;SDS011;44936;52.086;5.150;2023-06-19T14:19:49;5.82;;;2.80;;
36725;SDS011;44936;52.086;5.150;2023-06-19T14:22:20;6.22;;;2.47;;
36725;SDS011;44936;52.086;5.150;2023-06-19T14:24:46;5.38;;;2.53;;
36725;SDS011;44936;52.086;5.150;2023-06-19T14:27:11;6.57;;;2.22;;
36725;SDS011;44936;52.086;5.150;2023-06-19T14:29:37;5.10;;;2.55;;
36725;SDS011;44936;52.086;5.150;2023-06-19T14:32:03;5.57;;;2.80;;
36725;SDS011;44936;52.086;5.150;2023-06-19T14:34:28;5.40;;;2.25;;
36725;SDS011;44936;52.086;5.150;2023-06-19T14:36:54;4.25;;;2.50;;
36725;SDS011;44936;52.086;5.150;2023-06-19T14:39:19;4.63;;;2.10;;
36725;SDS011;44936;52.086;5.150;2023-06-19T14:41:44;3.97;;;1.80;;